createdAt,value
2017-03-17T00:04:18.053Z,52.4
2017-03-17T00:15:18.084Z,52.5
2017-03-17T00:26:18.144Z,52.8
2017-03-17T00:37:18.300Z,53
2017-03-17T00:48:17.881Z,53
2017-03-17T00:59:18.176Z,54.9
2017-03-17T01:10:18.926Z,54.7
2017-03-17T01:21:17.856Z,55.5
2017-03-17T01:32:17.630Z,56.1
2017-03-17T01:43:18.924Z,56.3
2017-03-17T01:54:18.152Z,56.7
2017-03-17T02:05:17.932Z,56.6
2017-03-17T02:16:17.560Z,56.6
2017-03-17T02:27:18.345Z,56.4
2017-03-17T02:38:18.651Z,56.2
2017-03-17T02:49:18.230Z,56.7
2017-03-17T03:00:18.572Z,56.4
2017-03-17T03:11:18.611Z,56.4
2017-03-17T03:22:17.616Z,56.5
2017-03-17T03:33:17.643Z,55.7
2017-03-17T03:44:17.888Z,56.1
2017-03-17T03:55:18.270Z,56
2017-03-17T04:06:18.330Z,55.9
2017-03-17T04:17:18.753Z,55.9
2017-03-17T04:28:18.129Z,55.4
2017-03-17T04:39:18.414Z,54.1
2017-03-17T04:50:18.113Z,51.7
2017-03-17T05:01:18.248Z,50.1
2017-03-17T05:12:18.517Z,48.9
2017-03-17T05:23:17.885Z,50
2017-03-17T05:34:17.684Z,50.7
2017-03-17T05:45:17.905Z,51.3
2017-03-17T05:56:18.166Z,51
2017-03-17T06:07:18.581Z,51.6
2017-03-17T06:18:18.399Z,51.6
2017-03-17T06:29:17.912Z,52.1
2017-03-17T06:40:18.527Z,52.3
2017-03-17T06:51:17.994Z,52.7
2017-03-17T07:02:18.066Z,52.2
2017-03-17T07:13:17.545Z,51.7
2017-03-17T07:24:18.039Z,52.7
2017-03-17T07:35:17.898Z,52.8
2017-03-17T07:46:18.082Z,53
2017-03-17T07:57:18.348Z,53.1
2017-03-17T08:08:18.226Z,53.1
2017-03-17T08:19:18.276Z,52.9
2017-03-17T08:30:18.181Z,53.7
2017-03-17T08:41:18.469Z,53.9
2017-03-17T08:52:18.801Z,54
2017-03-17T09:03:18.473Z,53.8
2017-03-17T09:14:18.408Z,54.1
2017-03-17T09:25:18.633Z,54.1
2017-03-17T09:36:17.900Z,54.2
2017-03-17T09:47:19.195Z,55.9
2017-03-17T09:58:19.108Z,54.8
2017-03-17T10:09:18.119Z,58.6
2017-03-17T10:20:19.041Z,56
2017-03-17T10:31:17.978Z,56.4
2017-03-17T10:42:18.171Z,55.9
2017-03-17T10:53:18.703Z,55.5
2017-03-17T11:04:18.638Z,55.2
2017-03-17T11:15:18.424Z,55.5
2017-03-17T11:26:18.377Z,55.2
2017-03-17T11:37:18.440Z,54.8
2017-03-17T11:48:18.748Z,54.6
2017-03-17T11:59:18.873Z,54.9
2017-03-17T12:10:18.429Z,55.1
2017-03-17T12:21:18.738Z,54.5
2017-03-17T12:32:18.664Z,55.2
2017-03-17T12:43:17.772Z,55.4
2017-03-17T12:54:18.046Z,55.1
2017-03-17T13:05:18.143Z,55.8
2017-03-17T13:16:18.479Z,55.1
2017-03-17T13:27:18.064Z,55.1
2017-03-17T13:38:19.129Z,54.5
2017-03-17T13:49:18.476Z,56.2
2017-03-17T14:00:18.106Z,55.6
2017-03-17T14:11:17.875Z,55.7
2017-03-17T14:22:18.280Z,56.5
2017-03-17T14:33:18.912Z,55.8
2017-03-17T14:44:18.478Z,55.9
2017-03-17T14:55:18.487Z,55.8
2017-03-17T15:06:18.261Z,55.6
2017-03-17T15:17:19.119Z,55.2
2017-03-17T15:28:18.771Z,55.5
2017-03-17T15:39:18.450Z,55.1
2017-03-17T15:50:18.436Z,55
2017-03-17T16:01:18.071Z,55.3
2017-03-17T16:12:18.451Z,54.9
2017-03-17T16:23:18.149Z,55.2
2017-03-17T16:34:17.517Z,54.3
2017-03-17T16:45:17.742Z,54.6
2017-03-17T16:56:18.708Z,54.5
2017-03-17T17:07:18.015Z,55
2017-03-17T17:18:18.044Z,54.3
2017-03-17T17:29:18.647Z,54.3
2017-03-17T17:40:18.388Z,54.2
2017-03-17T17:51:18.278Z,54.1
2017-03-17T18:02:18.229Z,54.3
2017-03-17T18:13:18.021Z,54.5
2017-03-17T18:24:18.821Z,54.2
2017-03-17T18:35:18.499Z,54.3
2017-03-17T18:46:18.533Z,53.6
2017-03-17T18:57:18.457Z,53.3
2017-03-17T19:08:18.273Z,54
2017-03-17T19:19:18.290Z,53.7
2017-03-17T19:30:19.067Z,53.4
2017-03-17T19:41:18.264Z,53.8
2017-03-17T19:52:18.537Z,53.5
2017-03-17T20:03:18.212Z,53.1
2017-03-17T20:14:18.519Z,53.7
2017-03-17T20:25:18.658Z,53.2
2017-03-17T20:36:18.201Z,53.1
2017-03-17T20:47:17.758Z,53.2
2017-03-17T20:58:18.956Z,53.1
2017-03-17T21:09:18.360Z,53.5
2017-03-17T21:20:18.719Z,53.6
2017-03-17T21:31:18.308Z,53.3
2017-03-17T21:42:18.723Z,53.2
2017-03-17T21:53:18.283Z,52.8
2017-03-17T22:04:19.154Z,52.8
2017-03-17T22:15:18.293Z,52.9
2017-03-17T22:26:18.527Z,53.3
2017-03-17T22:37:17.604Z,53.1
2017-03-17T22:48:18.847Z,52.8
2017-03-17T22:59:18.735Z,53.4
2017-03-17T23:10:19.347Z,53.6
2017-03-17T23:21:18.178Z,52.8
2017-03-17T23:32:18.119Z,52.8
2017-03-17T23:43:18.964Z,52.5
2017-03-17T23:54:18.209Z,52.1
